sensor_id;sensor_type;location;lat;lon;timestamp;pressure;altitude;pressure_sealevel;temperature;humidity
20624;BME280;10471;42.736;23.346;2023-04-29T09:29:07;95487.50;;;18.40;42.23
20624;BME280;10471;42.736;23.346;2023-04-29T09:31:33;95490.81;;;18.29;41.68
20624;BME280;10471;42.736;23.346;2023-04-29T09:33:59;95486.34;;;18.49;43.12
20624;BME280;10471;42.736;23.346;2023-04-29T09:36:50;95479.66;;;18.93;42.83
20624;BME280;10471;42.736;23.346;2023-04-29T09:39:22;95478.63;;;19.14;40.82
20624;BME280;10471;42.736;23.346;2023-04-29T09:44:26;95472.63;;;18.59;41.45
20624;BME280;10471;42.736;23.346;2023-04-29T09:49:23;95471.59;;;17.98;43.00
20624;BME280;10471;42.736;23.346;2023-04-29T09:51:57;95471.16;;;17.96;41.88
20624;BME280;10471;42.736;23.346;2023-04-29T09:54:25;95469.06;;;18.18;41.92
20624;BME280;10471;42.736;23.346;2023-04-29T09:56:53;95457.78;;;18.50;43.72
20624;BME280;10471;42.736;23.346;2023-04-29T09:59:19;95455.50;;;18.60;40.21
20624;BME280;10471;42.736;23.346;2023-04-29T10:01:49;95461.19;;;17.59;41.09
20624;BME280;10471;42.736;23.346;2023-04-29T10:04:16;95456.28;;;17.70;41.62
20624;BME280;10471;42.736;23.346;2023-04-29T10:06:43;95453.63;;;17.78;40.66
20624;BME280;10471;42.736;23.346;2023-04-29T10:09:12;95449.09;;;17.70;41.14
20624;BME280;10471;42.736;23.346;2023-04-29T10:11:45;95447.69;;;17.64;40.48
20624;BME280;10471;42.736;23.346;2023-04-29T10:14:12;95440.81;;;17.46;39.04
20624;BME280;10471;42.736;23.346;2023-04-29T10:19:11;95428.88;;;17.69;41.16
20624;BME280;10471;42.736;23.346;2023-04-29T10:21:39;95428.13;;;17.60;41.49
20624;BME280;10471;42.736;23.346;2023-04-29T10:24:06;95425.09;;;17.70;40.85
20624;BME280;10471;42.736;23.346;2023-04-29T10:26:33;95420.91;;;17.98;41.00
20624;BME280;10471;42.736;23.346;2023-04-29T10:29:02;95422.28;;;17.75;40.17
20624;BME280;10471;42.736;23.346;2023-04-29T10:31:30;95423.38;;;18.11;41.07
20624;BME280;10471;42.736;23.346;2023-04-29T10:33:57;95417.97;;;17.91;38.95
20624;BME280;10471;42.736;23.346;2023-04-29T10:36:24;95415.41;;;18.48;39.34
20624;BME280;10471;42.736;23.346;2023-04-29T10:38:54;95417.75;;;18.50;38.68
20624;BME280;10471;42.736;23.346;2023-04-29T10:41:22;95418.41;;;18.39;40.04
20624;BME280;10471;42.736;23.346;2023-04-29T10:43:51;95422.56;;;18.56;38.61
20624;BME280;10471;42.736;23.346;2023-04-29T10:46:20;95417.38;;;18.60;38.20
20624;BME280;10471;42.736;23.346;2023-04-29T10:48:47;95414.88;;;18.55;37.89
20624;BME280;10471;42.736;23.346;2023-04-29T10:51:27;95418.97;;;18.24;39.07
20624;BME280;10471;42.736;23.346;2023-04-29T10:54:14;95411.28;;;18.22;41.15
20624;BME280;10471;42.736;23.346;2023-04-29T10:56:47;95421.72;;;18.36;39.95
20624;BME280;10471;42.736;23.346;2023-04-29T10:59:19;95406.19;;;17.92;38.50
20624;BME280;10471;42.736;23.346;2023-04-29T11:01:47;95409.09;;;17.70;38.35
20624;BME280;10471;42.736;23.346;2023-04-29T11:04:14;95401.56;;;17.72;33.83
20624;BME280;10471;42.736;23.346;2023-04-29T11:06:42;95400.56;;;17.93;35.85
20624;BME280;10471;42.736;23.346;2023-04-29T11:14:07;95399.16;;;17.33;37.37
20624;BME280;10471;42.736;23.346;2023-04-29T11:16:34;95390.81;;;17.18;38.71
20624;BME280;10471;42.736;23.346;2023-04-29T11:19:06;95403.53;;;17.12;38.30
20624;BME280;10471;42.736;23.346;2023-04-29T11:21:36;95395.38;;;17.17;37.91
20624;BME280;10471;42.736;23.346;2023-04-29T11:24:05;95387.38;;;17.17;39.62
20624;BME280;10471;42.736;23.346;2023-04-29T11:26:33;95398.53;;;17.03;39.88
20624;BME280;10471;42.736;23.346;2023-04-29T11:28:59;95397.56;;;17.32;41.05
20624;BME280;10471;42.736;23.346;2023-04-29T11:31:34;95395.22;;;17.22;39.17
20624;BME280;10471;42.736;23.346;2023-04-29T11:34:00;95394.44;;;17.30;40.22
20624;BME280;10471;42.736;23.346;2023-04-29T11:36:25;95383.09;;;17.50;40.68
20624;BME280;10471;42.736;23.346;2023-04-29T11:38:52;95382.84;;;17.43;38.49
20624;BME280;10471;42.736;23.346;2023-04-29T11:41:18;95379.66;;;17.58;38.68
20624;BME280;10471;42.736;23.346;2023-04-29T11:43:57;95377.28;;;17.65;38.80
20624;BME280;10471;42.736;23.346;2023-04-29T11:46:23;95373.66;;;17.70;38.22
20624;BME280;10471;42.736;23.346;2023-04-29T11:48:48;95382.38;;;17.33;38.60
20624;BME280;10471;42.736;23.346;2023-04-29T11:51:15;95378.13;;;17.40;39.36
20624;BME280;10471;42.736;23.346;2023-04-29T11:53:41;95387.22;;;17.39;39.41
20624;BME280;10471;42.736;23.346;2023-04-29T11:56:08;95380.19;;;17.35;40.09
20624;BME280;10471;42.736;23.346;2023-04-29T11:58:34;95379.69;;;17.24;38.91
20624;BME280;10471;42.736;23.346;2023-04-29T12:00:59;95383.78;;;17.30;39.43
20624;BME280;10471;42.736;23.346;2023-04-29T12:03:25;95373.13;;;17.30;40.25
20624;BME280;10471;42.736;23.346;2023-04-29T12:08:21;95366.09;;;17.34;38.84
20624;BME280;10471;42.736;23.346;2023-04-29T12:10:47;95372.03;;;17.31;38.45
20624;BME280;10471;42.736;23.346;2023-04-29T12:13:13;95364.03;;;17.31;38.33
20624;BME280;10471;42.736;23.346;2023-04-29T12:15:39;95359.09;;;17.59;39.58
20624;BME280;10471;42.736;23.346;2023-04-29T12:18:05;95368.28;;;17.78;39.31
20624;BME280;10471;42.736;23.346;2023-04-29T12:20:31;95366.91;;;17.72;39.11
20624;BME280;10471;42.736;23.346;2023-04-29T12:23:15;95375.19;;;17.79;37.48
20624;BME280;10471;42.736;23.346;2023-04-29T12:25:50;95356.88;;;17.69;38.19
20624;BME280;10471;42.736;23.346;2023-04-29T12:28:16;95358.72;;;17.77;38.58
20624;BME280;10471;42.736;23.346;2023-04-29T12:30:46;95355.84;;;17.53;38.29
20624;BME280;10471;42.736;23.346;2023-04-29T12:33:23;95354.13;;;17.49;39.13
20624;BME280;10471;42.736;23.346;2023-04-29T12:35:50;95356.53;;;17.79;38.94
20624;BME280;10471;42.736;23.346;2023-04-29T12:38:23;95351.13;;;17.96;38.14
20624;BME280;10471;42.736;23.346;2023-04-29T12:40:48;95348.25;;;18.09;38.23
20624;BME280;10471;42.736;23.346;2023-04-29T12:43:15;95347.66;;;18.33;39.69
20624;BME280;10471;42.736;23.346;2023-04-29T12:45:40;95343.69;;;18.39;38.77
20624;BME280;10471;42.736;23.346;2023-04-29T12:48:06;95348.47;;;18.53;38.60
20624;BME280;10471;42.736;23.346;2023-04-29T12:50:36;95346.50;;;18.62;38.25
20624;BME280;10471;42.736;23.346;2023-04-29T12:53:06;95335.94;;;18.45;38.68
20624;BME280;10471;42.736;23.346;2023-04-29T12:55:33;95343.47;;;18.43;37.89
20624;BME280;10471;42.736;23.346;2023-04-29T12:57:59;95339.22;;;18.51;38.81
20624;BME280;10471;42.736;23.346;2023-04-29T13:00:25;95337.19;;;18.68;38.35
20624;BME280;10471;42.736;23.346;2023-04-29T13:02:50;95336.34;;;18.76;38.81
20624;BME280;10471;42.736;23.346;2023-04-29T13:05:16;95333.75;;;18.68;38.41
20624;BME280;10471;42.736;23.346;2023-04-29T13:07:41;95332.16;;;18.67;38.53
20624;BME280;10471;42.736;23.346;2023-04-29T13:10:07;95333.47;;;18.81;38.44
20624;BME280;10471;42.736;23.346;2023-04-29T13:12:33;95328.25;;;18.64;38.78
20624;BME280;10471;42.736;23.346;2023-04-29T13:14:58;95337.59;;;18.58;39.70
20624;BME280;10471;42.736;23.346;2023-04-29T13:17:24;95334.00;;;18.54;39.65
20624;BME280;10471;42.736;23.346;2023-04-29T13:19:49;95331.72;;;18.65;39.42
20624;BME280;10471;42.736;23.346;2023-04-29T13:22:15;95338.63;;;18.66;39.51
20624;BME280;10471;42.736;23.346;2023-04-29T13:24:40;95331.91;;;18.40;39.44
20624;BME280;10471;42.736;23.346;2023-04-29T13:27:06;95331.72;;;18.44;40.54
20624;BME280;10471;42.736;23.346;2023-04-29T13:29:31;95339.84;;;18.48;40.92
20624;BME280;10471;42.736;23.346;2023-04-29T13:31:56;95330.22;;;18.55;40.20
20624;BME280;10471;42.736;23.346;2023-04-29T13:34:22;95333.00;;;18.39;40.54
20624;BME280;10471;42.736;23.346;2023-04-29T13:36:47;95323.22;;;18.51;41.19
20624;BME280;10471;42.736;23.346;2023-04-29T13:39:13;95325.94;;;18.42;40.61
20624;BME280;10471;42.736;23.346;2023-04-29T13:41:38;95327.75;;;18.71;41.03
20624;BME280;10471;42.736;23.346;2023-04-29T13:44:04;95317.31;;;18.78;40.21
20624;BME280;10471;42.736;23.346;2023-04-29T13:46:29;95328.78;;;18.78;39.80
20624;BME280;10471;42.736;23.346;2023-04-29T13:48:56;95316.41;;;18.94;39.78
20624;BME280;10471;42.736;23.346;2023-04-29T13:51:22;95305.66;;;19.35;40.77
20624;BME280;10471;42.736;23.346;2023-04-29T13:53:47;95312.41;;;19.76;40.58
20624;BME280;10471;42.736;23.346;2023-04-29T13:56:12;95317.00;;;20.12;40.52
20624;BME280;10471;42.736;23.346;2023-04-29T13:58:38;95304.09;;;20.53;38.07
20624;BME280;10471;42.736;23.346;2023-04-29T14:01:05;95298.69;;;20.77;37.04
20624;BME280;10471;42.736;23.346;2023-04-29T14:03:31;95303.44;;;20.95;37.17
20624;BME280;10471;42.736;23.346;2023-04-29T14:05:56;95306.41;;;21.06;38.41
20624;BME280;10471;42.736;23.346;2023-04-29T14:08:22;95296.94;;;21.23;38.55
20624;BME280;10471;42.736;23.346;2023-04-29T14:10:47;95295.31;;;20.92;36.96
20624;BME280;10471;42.736;23.346;2023-04-29T14:13:13;95299.63;;;20.57;37.30
20624;BME280;10471;42.736;23.346;2023-04-29T14:15:38;95286.53;;;21.07;38.60
20624;BME280;10471;42.736;23.346;2023-04-29T14:18:03;95288.91;;;20.96;37.39
20624;BME280;10471;42.736;23.346;2023-04-29T14:20:31;95291.09;;;21.06;36.70
20624;BME280;10471;42.736;23.346;2023-04-29T14:22:57;95295.25;;;20.64;36.54
20624;BME280;10471;42.736;23.346;2023-04-29T14:25:22;95286.13;;;20.93;37.92
20624;BME280;10471;42.736;23.346;2023-04-29T14:27:47;95283.97;;;21.25;39.91
20624;BME280;10471;42.736;23.346;2023-04-29T14:30:13;95279.91;;;21.74;40.07
20624;BME280;10471;42.736;23.346;2023-04-29T14:32:38;95288.03;;;21.93;37.85
20624;BME280;10471;42.736;23.346;2023-04-29T14:35:04;95284.75;;;21.84;38.38
20624;BME280;10471;42.736;23.346;2023-04-29T14:37:30;95286.53;;;21.95;38.32
20624;BME280;10471;42.736;23.346;2023-04-29T14:39:55;95277.34;;;22.12;38.98
20624;BME280;10471;42.736;23.346;2023-04-29T14:42:21;95278.03;;;22.24;38.44
20624;BME280;10471;42.736;23.346;2023-04-29T14:44:46;95275.59;;;22.35;38.75
20624;BME280;10471;42.736;23.346;2023-04-29T14:47:11;95268.50;;;22.27;38.98
20624;BME280;10471;42.736;23.346;2023-04-29T14:49:37;95268.16;;;22.28;38.35
20624;BME280;10471;42.736;23.346;2023-04-29T14:52:02;95266.31;;;22.47;37.13
20624;BME280;10471;42.736;23.346;2023-04-29T14:54:28;95264.94;;;22.57;37.51
20624;BME280;10471;42.736;23.346;2023-04-29T14:56:54;95264.25;;;22.60;37.06
20624;BME280;10471;42.736;23.346;2023-04-29T14:59:19;95273.81;;;22.57;37.56
20624;BME280;10471;42.736;23.346;2023-04-29T15:01:45;95262.41;;;22.64;37.24
20624;BME280;10471;42.736;23.346;2023-04-29T15:04:10;95262.78;;;22.62;37.08
20624;BME280;10471;42.736;23.346;2023-04-29T15:06:38;95255.19;;;22.49;37.00
20624;BME280;10471;42.736;23.346;2023-04-29T15:09:05;95249.81;;;22.15;38.38
20624;BME280;10471;42.736;23.346;2023-04-29T15:11:30;95252.41;;;22.11;39.05
20624;BME280;10471;42.736;23.346;2023-04-29T15:13:55;95250.00;;;22.06;38.18
20624;BME280;10471;42.736;23.346;2023-04-29T15:16:21;95257.19;;;21.87;37.96
20624;BME280;10471;42.736;23.346;2023-04-29T15:18:46;95244.91;;;21.55;36.66
20624;BME280;10471;42.736;23.346;2023-04-29T15:21:12;95250.22;;;21.09;38.66
20624;BME280;10471;42.736;23.346;2023-04-29T15:23:37;95249.13;;;21.10;38.43
20624;BME280;10471;42.736;23.346;2023-04-29T15:26:03;95250.88;;;20.91;38.19
20624;BME280;10471;42.736;23.346;2023-04-29T15:28:29;95249.13;;;20.83;38.69
20624;BME280;10471;42.736;23.346;2023-04-29T15:30:54;95239.75;;;20.77;39.60
20624;BME280;10471;42.736;23.346;2023-04-29T15:33:20;95251.84;;;20.71;38.19
20624;BME280;10471;42.736;23.346;2023-04-29T15:35:45;95250.19;;;20.54;38.64
20624;BME280;10471;42.736;23.346;2023-04-29T15:38:11;95253.25;;;20.41;38.89
20624;BME280;10471;42.736;23.346;2023-04-29T15:40:36;95254.31;;;20.25;39.13
20624;BME280;10471;42.736;23.346;2023-04-29T15:43:02;95255.00;;;20.10;39.08
20624;BME280;10471;42.736;23.346;2023-04-29T15:45:27;95253.78;;;19.72;39.61
20624;BME280;10471;42.736;23.346;2023-04-29T15:47:53;95252.63;;;19.49;40.65
20624;BME280;10471;42.736;23.346;2023-04-29T15:50:18;95246.97;;;19.38;41.78
20624;BME280;10471;42.736;23.346;2023-04-29T15:52:45;95246.59;;;19.28;42.16
20624;BME280;10471;42.736;23.346;2023-04-29T15:55:10;95250.16;;;19.20;42.12
20624;BME280;10471;42.736;23.346;2023-04-29T15:57:36;95248.47;;;19.15;41.05
20624;BME280;10471;42.736;23.346;2023-04-29T16:00:07;95253.44;;;19.05;41.15
20624;BME280;10471;42.736;23.346;2023-04-29T16:02:32;95244.50;;;19.01;41.34
20624;BME280;10471;42.736;23.346;2023-04-29T16:04:58;95248.25;;;18.88;41.62
20624;BME280;10471;42.736;23.346;2023-04-29T16:07:23;95249.31;;;18.75;42.15
20624;BME280;10471;42.736;23.346;2023-04-29T16:09:48;95250.00;;;18.72;41.91
20624;BME280;10471;42.736;23.346;2023-04-29T16:12:14;95246.81;;;18.58;41.47
20624;BME280;10471;42.736;23.346;2023-04-29T16:14:39;95250.19;;;18.47;42.16
20624;BME280;10471;42.736;23.346;2023-04-29T16:17:05;95244.28;;;18.42;42.30
20624;BME280;10471;42.736;23.346;2023-04-29T16:19:30;95244.69;;;18.32;43.49
20624;BME280;10471;42.736;23.346;2023-04-29T16:21:56;95247.56;;;18.27;43.27
20624;BME280;10471;42.736;23.346;2023-04-29T16:24:21;95247.38;;;18.03;42.83
20624;BME280;10471;42.736;23.346;2023-04-29T16:26:47;95256.41;;;17.90;42.97
20624;BME280;10471;42.736;23.346;2023-04-29T16:29:12;95255.03;;;17.84;42.72
20624;BME280;10471;42.736;23.346;2023-04-29T16:31:38;95255.84;;;17.47;43.03
20624;BME280;10471;42.736;23.346;2023-04-29T16:34:03;95258.88;;;17.29;43.49
20624;BME280;10471;42.736;23.346;2023-04-29T16:36:30;95252.47;;;17.21;43.53
20624;BME280;10471;42.736;23.346;2023-04-29T16:38:56;95251.53;;;17.34;43.01
20624;BME280;10471;42.736;23.346;2023-04-29T16:41:22;95263.09;;;17.38;42.97
20624;BME280;10471;42.736;23.346;2023-04-29T16:43:48;95258.38;;;17.35;43.34
20624;BME280;10471;42.736;23.346;2023-04-29T16:46:14;95273.09;;;17.41;44.65
20624;BME280;10471;42.736;23.346;2023-04-29T16:48:39;95283.94;;;17.36;46.24
20624;BME280;10471;42.736;23.346;2023-04-29T16:51:05;95282.72;;;17.25;47.78
20624;BME280;10471;42.736;23.346;2023-04-29T16:53:30;95292.13;;;17.06;48.93
20624;BME280;10471;42.736;23.346;2023-04-29T16:55:56;95294.84;;;16.72;51.85
20624;BME280;10471;42.736;23.346;2023-04-29T16:58:21;95297.84;;;16.71;55.50
20624;BME280;10471;42.736;23.346;2023-04-29T17:00:47;95292.19;;;16.64;55.80
20624;BME280;10471;42.736;23.346;2023-04-29T17:03:13;95291.75;;;16.45;57.02
20624;BME280;10471;42.736;23.346;2023-04-29T17:05:38;95289.84;;;16.37;56.83
20624;BME280;10471;42.736;23.346;2023-04-29T17:08:04;95290.50;;;16.34;55.14
20624;BME280;10471;42.736;23.346;2023-04-29T17:10:30;95287.50;;;16.36;55.44
20624;BME280;10471;42.736;23.346;2023-04-29T17:12:55;95284.84;;;16.27;54.92
20624;BME280;10471;42.736;23.346;2023-04-29T17:15:20;95289.19;;;16.23;55.51
20624;BME280;10471;42.736;23.346;2023-04-29T17:17:46;95281.88;;;16.29;53.73
20624;BME280;10471;42.736;23.346;2023-04-29T17:20:12;95279.22;;;16.37;53.93
20624;BME280;10471;42.736;23.346;2023-04-29T17:22:37;95282.50;;;16.42;54.00
20624;BME280;10471;42.736;23.346;2023-04-29T17:25:04;95286.44;;;16.45;54.60
20624;BME280;10471;42.736;23.346;2023-04-29T17:27:32;95286.44;;;16.45;53.81
20624;BME280;10471;42.736;23.346;2023-04-29T17:29:57;95288.00;;;16.46;54.16
20624;BME280;10471;42.736;23.346;2023-04-29T17:32:22;95278.75;;;16.43;54.61
20624;BME280;10471;42.736;23.346;2023-04-29T17:34:53;95287.03;;;16.42;54.82
20624;BME280;10471;42.736;23.346;2023-04-29T17:37:19;95287.50;;;16.36;54.57
20624;BME280;10471;42.736;23.346;2023-04-29T17:39:49;95292.34;;;16.25;58.01
20624;BME280;10471;42.736;23.346;2023-04-29T17:42:16;95291.06;;;16.14;59.12
20624;BME280;10471;42.736;23.346;2023-04-29T17:44:41;95297.91;;;15.98;61.50
20624;BME280;10471;42.736;23.346;2023-04-29T17:47:07;95296.00;;;15.82;63.45
20624;BME280;10471;42.736;23.346;2023-04-29T17:49:35;95301.16;;;15.78;63.98
20624;BME280;10471;42.736;23.346;2023-04-29T17:52:00;95302.53;;;15.68;64.58
20624;BME280;10471;42.736;23.346;2023-04-29T17:54:28;95299.72;;;15.73;65.10
20624;BME280;10471;42.736;23.346;2023-04-29T17:56:54;95301.25;;;15.57;67.88
20624;BME280;10471;42.736;23.346;2023-04-29T17:59:19;95298.44;;;15.62;67.40
20624;BME280;10471;42.736;23.346;2023-04-29T18:01:45;95301.25;;;15.57;69.77
20624;BME280;10471;42.736;23.346;2023-04-29T18:04:11;95305.75;;;15.56;68.95
20624;BME280;10471;42.736;23.346;2023-04-29T18:06:36;95301.25;;;15.57;69.61
20624;BME280;10471;42.736;23.346;2023-04-29T18:09:02;95305.25;;;15.46;70.68
20624;BME280;10471;42.736;23.346;2023-04-29T18:11:29;95303.84;;;15.48;69.89
20624;BME280;10471;42.736;23.346;2023-04-29T18:13:57;95300.88;;;15.50;68.28
20624;BME280;10471;42.736;23.346;2023-04-29T18:16:23;95315.59;;;15.56;68.45
20624;BME280;10471;42.736;23.346;2023-04-29T18:18:49;95308.91;;;15.58;68.64
20624;BME280;10471;42.736;23.346;2023-04-29T18:21:24;95311.88;;;15.57;67.97
20624;BME280;10471;42.736;23.346;2023-04-29T18:23:51;95311.69;;;15.53;67.98
20624;BME280;10471;42.736;23.346;2023-04-29T18:26:17;95306.38;;;15.53;68.08
20624;BME280;10471;42.736;23.346;2023-04-29T18:28:44;95305.59;;;15.53;69.14
20624;BME280;10471;42.736;23.346;2023-04-29T18:31:10;95316.22;;;15.53;69.83
20624;BME280;10471;42.736;23.346;2023-04-29T18:33:35;95307.78;;;15.51;75.69
20624;BME280;10471;42.736;23.346;2023-04-29T18:36:02;95317.44;;;15.47;82.43
20624;BME280;10471;42.736;23.346;2023-04-29T18:38:27;95318.31;;;15.34;81.78
20624;BME280;10471;42.736;23.346;2023-04-29T18:40:52;95320.34;;;15.28;85.04
20624;BME280;10471;42.736;23.346;2023-04-29T18:43:18;95321.97;;;15.16;88.25
20624;BME280;10471;42.736;23.346;2023-04-29T18:45:49;95321.59;;;15.09;90.21
20624;BME280;10471;42.736;23.346;2023-04-29T18:48:15;95324.97;;;15.01;91.03
20624;BME280;10471;42.736;23.346;2023-04-29T18:50:40;95326.97;;;14.96;90.66
20624;BME280;10471;42.736;23.346;2023-04-29T18:53:06;95331.13;;;14.88;91.23
20624;BME280;10471;42.736;23.346;2023-04-29T18:55:32;95327.84;;;14.83;89.48
20624;BME280;10471;42.736;23.346;2023-04-29T18:57:58;95338.84;;;14.76;89.51
20624;BME280;10471;42.736;23.346;2023-04-29T19:00:23;95328.06;;;14.73;90.31
20624;BME280;10471;42.736;23.346;2023-04-29T19:02:49;95326.50;;;14.72;92.24
20624;BME280;10471;42.736;23.346;2023-04-29T19:05:14;95326.31;;;14.68;92.83
20624;BME280;10471;42.736;23.346;2023-04-29T19:07:40;95329.41;;;14.62;94.25
20624;BME280;10471;42.736;23.346;2023-04-29T19:10:06;95324.38;;;14.60;93.10
20624;BME280;10471;42.736;23.346;2023-04-29T19:12:32;95322.69;;;14.43;93.76
20624;BME280;10471;42.736;23.346;2023-04-29T19:14:58;95329.78;;;14.34;93.79
20624;BME280;10471;42.736;23.346;2023-04-29T19:17:23;95329.88;;;14.29;96.76
20624;BME280;10471;42.736;23.346;2023-04-29T19:19:48;95327.84;;;14.26;95.31
20624;BME280;10471;42.736;23.346;2023-04-29T19:22:14;95327.84;;;14.26;96.30
20624;BME280;10471;42.736;23.346;2023-04-29T19:24:39;95327.34;;;14.24;97.94
20624;BME280;10471;42.736;23.346;2023-04-29T19:27:06;95330.59;;;14.21;97.90
20624;BME280;10471;42.736;23.346;2023-04-29T19:29:32;95332.59;;;14.15;96.36
20624;BME280;10471;42.736;23.346;2023-04-29T19:31:57;95331.34;;;14.08;96.83
20624;BME280;10471;42.736;23.346;2023-04-29T19:34:23;95331.19;;;14.04;95.65
20624;BME280;10471;42.736;23.346;2023-04-29T19:36:48;95328.81;;;14.03;94.37
20624;BME280;10471;42.736;23.346;2023-04-29T19:39:13;95322.53;;;13.99;94.05
20624;BME280;10471;42.736;23.346;2023-04-29T19:41:40;95334.41;;;14.01;94.08
20624;BME280;10471;42.736;23.346;2023-04-29T19:44:06;95340.44;;;13.93;97.79
20624;BME280;10471;42.736;23.346;2023-04-29T19:46:31;95341.41;;;13.84;100.00
20624;BME280;10471;42.736;23.346;2023-04-29T19:48:57;95340.75;;;13.78;100.00
20624;BME280;10471;42.736;23.346;2023-04-29T19:51:22;95338.97;;;13.74;100.00
20624;BME280;10471;42.736;23.346;2023-04-29T19:53:48;95336.91;;;13.71;100.00
20624;BME280;10471;42.736;23.346;2023-04-29T19:56:14;95341.41;;;13.71;100.00
20624;BME280;10471;42.736;23.346;2023-04-29T19:58:40;95337.69;;;13.72;100.00
20624;BME280;10471;42.736;23.346;2023-04-29T20:01:05;95331.63;;;13.71;99.84
20624;BME280;10471;42.736;23.346;2023-04-29T20:03:31;95330.81;;;13.71;100.00
20624;BME280;10471;42.736;23.346;2023-04-29T20:05:59;95328.47;;;13.69;100.00
20624;BME280;10471;42.736;23.346;2023-04-29T20:08:24;95333.88;;;13.64;100.00
20624;BME280;10471;42.736;23.346;2023-04-29T20:10:50;95331.41;;;13.68;100.00
20624;BME280;10471;42.736;23.346;2023-04-29T20:13:17;95331.41;;;13.68;100.00
20624;BME280;10471;42.736;23.346;2023-04-29T20:15:42;95330.03;;;13.70;100.00
20624;BME280;10471;42.736;23.346;2023-04-29T20:18:07;95326.31;;;13.71;100.00
20624;BME280;10471;42.736;23.346;2023-04-29T20:20:33;95323.16;;;13.69;100.00
20624;BME280;10471;42.736;23.346;2023-04-29T20:22:58;95322.78;;;13.62;100.00
20624;BME280;10471;42.736;23.346;2023-04-29T20:25:25;95325.50;;;13.57;100.00
20624;BME280;10471;42.736;23.346;2023-04-29T20:27:54;95326.13;;;13.54;100.00
20624;BME280;10471;42.736;23.346;2023-04-29T20:30:19;95319.34;;;13.48;100.00
20624;BME280;10471;42.736;23.346;2023-04-29T20:32:44;95319.03;;;13.50;100.00
20624;BME280;10471;42.736;23.346;2023-04-29T20:35:12;95324.13;;;13.46;100.00
20624;BME280;10471;42.736;23.346;2023-04-29T20:37:38;95318.66;;;13.43;100.00
20624;BME280;10471;42.736;23.346;2023-04-29T20:40:04;95315.53;;;13.41;100.00
20624;BME280;10471;42.736;23.346;2023-04-29T20:42:32;95321.59;;;13.41;100.00
20624;BME280;10471;42.736;23.346;2023-04-29T20:44:57;95320.81;;;13.41;100.00
20624;BME280;10471;42.736;23.346;2023-04-29T20:47:23;95319.44;;;13.43;100.00
20624;BME280;10471;42.736;23.346;2023-04-29T20:49:48;95319.25;;;13.40;100.00
20624;BME280;10471;42.736;23.346;2023-04-29T20:52:14;95325.03;;;13.28;100.00
20624;BME280;10471;42.736;23.346;2023-04-29T20:54:40;95322.84;;;13.30;100.00
20624;BME280;10471;42.736;23.346;2023-04-29T20:57:05;95321.88;;;13.26;100.00
20624;BME280;10471;42.736;23.346;2023-04-29T20:59:33;95319.91;;;13.18;100.00
20624;BME280;10471;42.736;23.346;2023-04-29T21:01:59;95312.34;;;13.12;100.00
20624;BME280;10471;42.736;23.346;2023-04-29T21:04:24;95315.06;;;13.07;100.00
20624;BME280;10471;42.736;23.346;2023-04-29T21:06:50;95313.88;;;13.00;100.00
20624;BME280;10471;42.736;23.346;2023-04-29T21:09:18;95317.81;;;13.02;100.00
20624;BME280;10471;42.736;23.346;2023-04-29T21:11:43;95314.47;;;12.97;100.00
20624;BME280;10471;42.736;23.346;2023-04-29T21:14:09;95313.69;;;12.96;100.00
20624;BME280;10471;42.736;23.346;2023-04-29T21:16:34;95314.09;;;12.85;100.00
20624;BME280;10471;42.736;23.346;2023-04-29T21:19:00;95312.81;;;12.82;100.00
20624;BME280;10471;42.736;23.346;2023-04-29T21:21:25;95305.78;;;12.78;100.00
20624;BME280;10471;42.736;23.346;2023-04-29T21:23:51;95314.19;;;12.80;100.00
20624;BME280;10471;42.736;23.346;2023-04-29T21:26:16;95315.00;;;12.80;100.00
20624;BME280;10471;42.736;23.346;2023-04-29T21:28:42;95308.91;;;12.80;100.00
20624;BME280;10471;42.736;23.346;2023-04-29T21:31:07;95307.91;;;12.76;100.00
20624;BME280;10471;42.736;23.346;2023-04-29T21:33:39;95312.44;;;12.75;100.00
20624;BME280;10471;42.736;23.346;2023-04-29T21:36:04;95302.94;;;12.74;100.00
20624;BME280;10471;42.736;23.346;2023-04-29T21:38:30;95309.28;;;12.73;100.00
20624;BME280;10471;42.736;23.346;2023-04-29T21:40:57;95308.50;;;12.73;100.00
20624;BME280;10471;42.736;23.346;2023-04-29T21:43:24;95312.69;;;12.74;100.00
20624;BME280;10471;42.736;23.346;2023-04-29T21:45:52;95300.84;;;12.71;100.00
20624;BME280;10471;42.736;23.346;2023-04-29T21:48:17;95309.88;;;12.70;100.00
20624;BME280;10471;42.736;23.346;2023-04-29T21:50:45;95316.50;;;12.68;100.00
20624;BME280;10471;42.736;23.346;2023-04-29T21:53:11;95317.09;;;12.65;100.00
20624;BME280;10471;42.736;23.346;2023-04-29T21:55:36;95315.66;;;12.54;100.00
20624;BME280;10471;42.736;23.346;2023-04-29T21:58:02;95319.97;;;12.50;100.00
20624;BME280;10471;42.736;23.346;2023-04-29T22:00:28;95317.41;;;12.45;100.00
20624;BME280;10471;42.736;23.346;2023-04-29T22:03:06;95312.13;;;12.45;100.00
20624;BME280;10471;42.736;23.346;2023-04-29T22:05:35;95306.03;;;12.44;100.00
20624;BME280;10471;42.736;23.346;2023-04-29T22:08:01;95312.13;;;12.45;100.00
20624;BME280;10471;42.736;23.346;2023-04-29T22:10:28;95308.19;;;12.43;100.00
20624;BME280;10471;42.736;23.346;2023-04-29T22:12:54;95311.69;;;12.38;100.00
20624;BME280;10471;42.736;23.346;2023-04-29T22:15:19;95313.84;;;12.36;100.00
20624;BME280;10471;42.736;23.346;2023-04-29T22:17:45;95309.13;;;12.33;100.00
20624;BME280;10471;42.736;23.346;2023-04-29T22:20:11;95308.13;;;12.29;100.00
20624;BME280;10471;42.736;23.346;2023-04-29T22:22:37;95315.63;;;12.22;100.00
20624;BME280;10471;42.736;23.346;2023-04-29T22:25:03;95304.56;;;12.20;100.00
20624;BME280;10471;42.736;23.346;2023-04-29T22:27:30;95307.28;;;12.15;100.00